sensor_id;sensor_type;location;lat;lon;timestamp;pressure;altitude;pressure_sealevel;temperature;humidity
7888;BME280;3989;48.810;9.208;2023-02-03T01:50:24;100032.25;;;6.02;100.00
7888;BME280;3989;48.810;9.208;2023-02-03T01:52:53;100037.56;;;6.02;100.00
7888;BME280;3989;48.810;9.208;2023-02-03T01:55:25;100011.72;;;5.82;100.00
7888;BME280;3989;48.810;9.208;2023-02-03T01:57:56;100068.28;;;6.16;100.00
7888;BME280;3989;48.810;9.208;2023-02-03T02:00:24;100026.97;;;5.91;100.00
7888;BME280;3989;48.810;9.208;2023-02-03T02:02:51;100060.22;;;6.17;100.00
7888;BME280;3989;48.810;9.208;2023-02-03T02:05:26;99955.97;;;5.61;100.00
7888;BME280;3989;48.810;9.208;2023-02-03T02:07:55;99887.56;;;5.22;100.00
7888;BME280;3989;48.810;9.208;2023-02-03T02:10:24;99891.81;;;5.36;100.00
7888;BME280;3989;48.810;9.208;2023-02-03T02:12:51;100016.25;;;6.04;100.00
7888;BME280;3989;48.810;9.208;2023-02-03T02:15:22;99837.75;;;5.05;100.00
7888;BME280;3989;48.810;9.208;2023-02-03T02:18:00;99625.25;;;3.93;100.00
7888;BME280;3989;48.810;9.208;2023-02-03T02:20:53;99875.69;;;5.39;100.00
7888;BME280;3989;48.810;9.208;2023-02-03T02:26:50;99987.34;;;5.90;100.00
7888;BME280;3989;48.810;9.208;2023-02-03T02:29:54;99890.94;;;5.46;100.00
7888;BME280;3989;48.810;9.208;2023-02-03T02:32:34;99994.91;;;6.05;100.00
7888;BME280;3989;48.810;9.208;2023-02-03T02:35:11;99925.16;;;5.60;100.00
7888;BME280;3989;48.810;9.208;2023-02-03T02:37:47;99724.41;;;4.43;100.00
7888;BME280;3989;48.810;9.208;2023-02-03T02:40:22;99966.13;;;5.90;100.00
7888;BME280;3989;48.810;9.208;2023-02-03T02:42:59;99898.91;;;5.57;100.00
7888;BME280;3989;48.810;9.208;2023-02-03T02:45:30;99754.97;;;4.69;100.00
7888;BME280;3989;48.810;9.208;2023-02-03T02:48:05;99834.66;;;5.22;100.00
7888;BME280;3989;48.810;9.208;2023-02-03T02:50:38;99769.63;;;4.62;100.00
7888;BME280;3989;48.810;9.208;2023-02-03T02:53:06;99906.50;;;5.51;100.00
7888;BME280;3989;48.810;9.208;2023-02-03T02:55:36;99604.53;;;3.76;100.00
7888;BME280;3989;48.810;9.208;2023-02-03T02:58:08;99950.84;;;5.93;100.00
7888;BME280;3989;48.810;9.208;2023-02-03T03:00:37;99829.34;;;5.22;100.00
7888;BME280;3989;48.810;9.208;2023-02-03T03:03:11;99774.75;;;4.88;100.00
7888;BME280;3989;48.810;9.208;2023-02-03T03:05:41;99811.19;;;5.06;100.00
7888;BME280;3989;48.810;9.208;2023-02-03T03:08:09;99858.22;;;5.47;100.00
7888;BME280;3989;48.810;9.208;2023-02-03T03:10:38;99629.97;;;4.12;100.00
7888;BME280;3989;48.810;9.208;2023-02-03T03:13:13;99762.22;;;4.90;100.00
7888;BME280;3989;48.810;9.208;2023-02-03T03:15:42;99972.28;;;6.12;100.00
7888;BME280;3989;48.810;9.208;2023-02-03T03:18:14;99655.56;;;4.22;100.00
7888;BME280;3989;48.810;9.208;2023-02-03T03:20:44;99610.38;;;4.03;100.00
7888;BME280;3989;48.810;9.208;2023-02-03T03:23:18;99900.84;;;5.66;100.00
7888;BME280;3989;48.810;9.208;2023-02-03T03:25:52;99655.22;;;4.38;100.00
7888;BME280;3989;48.810;9.208;2023-02-03T03:28:24;99847.88;;;5.44;100.00
7888;BME280;3989;48.810;9.208;2023-02-03T03:30:53;99766.66;;;4.89;100.00
7888;BME280;3989;48.810;9.208;2023-02-03T03:33:24;99833.44;;;5.15;100.00
7888;BME280;3989;48.810;9.208;2023-02-03T03:35:55;100002.88;;;6.05;100.00
7888;BME280;3989;48.810;9.208;2023-02-03T03:38:31;99688.25;;;4.33;100.00
7888;BME280;3989;48.810;9.208;2023-02-03T03:41:02;99947.53;;;5.78;100.00
7888;BME280;3989;48.810;9.208;2023-02-03T03:43:33;99921.06;;;5.67;100.00
7888;BME280;3989;48.810;9.208;2023-02-03T03:46:05;99998.88;;;6.11;100.00
7888;BME280;3989;48.810;9.208;2023-02-03T03:48:38;99835.81;;;4.96;100.00
7888;BME280;3989;48.810;9.208;2023-02-03T03:51:09;100041.19;;;6.12;100.00
7888;BME280;3989;48.810;9.208;2023-02-03T03:53:40;99717.09;;;4.36;100.00
7888;BME280;3989;48.810;9.208;2023-02-03T03:56:14;99878.06;;;5.30;100.00
7888;BME280;3989;48.810;9.208;2023-02-03T03:59:03;99688.16;;;3.99;100.00
7888;BME280;3989;48.810;9.208;2023-02-03T04:01:36;99858.41;;;4.89;100.00
7888;BME280;3989;48.810;9.208;2023-02-03T04:04:20;99906.47;;;5.28;100.00
7888;BME280;3989;48.810;9.208;2023-02-03T04:06:52;99868.66;;;5.04;100.00
7888;BME280;3989;48.810;9.208;2023-02-03T04:09:20;99753.56;;;4.31;100.00
7888;BME280;3989;48.810;9.208;2023-02-03T04:11:52;99957.06;;;5.59;100.00
7888;BME280;3989;48.810;9.208;2023-02-03T04:14:33;99711.00;;;4.00;100.00
7888;BME280;3989;48.810;9.208;2023-02-03T04:17:18;99879.69;;;4.98;100.00
7888;BME280;3989;48.810;9.208;2023-02-03T04:20:03;99753.78;;;4.16;100.00
7888;BME280;3989;48.810;9.208;2023-02-03T04:22:42;99813.31;;;4.44;100.00
7888;BME280;3989;48.810;9.208;2023-02-03T04:25:17;99840.59;;;4.68;100.00
7888;BME280;3989;48.810;9.208;2023-02-03T04:27:47;99753.13;;;4.02;100.00
7888;BME280;3989;48.810;9.208;2023-02-03T04:30:17;99703.69;;;3.80;100.00
7888;BME280;3989;48.810;9.208;2023-02-03T04:32:46;100023.03;;;5.73;100.00
7888;BME280;3989;48.810;9.208;2023-02-03T04:35:15;99954.97;;;5.29;100.00
7888;BME280;3989;48.810;9.208;2023-02-03T04:37:42;100015.09;;;5.73;100.00
7888;BME280;3989;48.810;9.208;2023-02-03T04:40:10;99814.03;;;4.46;100.00
7888;BME280;3989;48.810;9.208;2023-02-03T04:42:37;100005.31;;;5.51;100.00
7888;BME280;3989;48.810;9.208;2023-02-03T04:45:04;99829.41;;;4.41;100.00
7888;BME280;3989;48.810;9.208;2023-02-03T04:47:31;99980.94;;;5.24;100.00
7888;BME280;3989;48.810;9.208;2023-02-03T04:49:58;99995.78;;;5.38;100.00
7888;BME280;3989;48.810;9.208;2023-02-03T04:52:26;99742.22;;;3.83;100.00
7888;BME280;3989;48.810;9.208;2023-02-03T04:54:53;99891.91;;;4.42;100.00
7888;BME280;3989;48.810;9.208;2023-02-03T05:00:31;99887.81;;;4.73;100.00
7888;BME280;3989;48.810;9.208;2023-02-03T05:06:42;100003.84;;;5.47;100.00
7888;BME280;3989;48.810;9.208;2023-02-03T05:09:13;99784.13;;;4.11;100.00
7888;BME280;3989;48.810;9.208;2023-02-03T05:11:40;99822.06;;;4.34;100.00
7888;BME280;3989;48.810;9.208;2023-02-03T05:14:07;99982.09;;;5.09;100.00
7888;BME280;3989;48.810;9.208;2023-02-03T05:16:36;99926.22;;;4.90;100.00
7888;BME280;3989;48.810;9.208;2023-02-03T05:19:05;99925.00;;;4.83;100.00
7888;BME280;3989;48.810;9.208;2023-02-03T05:21:32;99918.47;;;4.75;100.00
7888;BME280;3989;48.810;9.208;2023-02-03T05:23:59;100034.78;;;5.47;100.00
7888;BME280;3989;48.810;9.208;2023-02-03T05:26:29;100056.44;;;5.41;100.00
7888;BME280;3989;48.810;9.208;2023-02-03T05:28:55;99795.91;;;4.07;100.00
7888;BME280;3989;48.810;9.208;2023-02-03T05:31:25;99815.19;;;4.20;100.00
7888;BME280;3989;48.810;9.208;2023-02-03T05:34:01;99928.09;;;4.76;100.00
7888;BME280;3989;48.810;9.208;2023-02-03T05:36:33;100042.72;;;5.47;100.00
7888;BME280;3989;48.810;9.208;2023-02-03T05:39:02;99905.84;;;4.68;100.00
7888;BME280;3989;48.810;9.208;2023-02-03T05:41:31;99846.97;;;4.18;100.00
7888;BME280;3989;48.810;9.208;2023-02-03T05:44:15;99820.88;;;4.14;100.00
7888;BME280;3989;48.810;9.208;2023-02-03T05:47:09;99687.78;;;3.22;100.00
7888;BME280;3989;48.810;9.208;2023-02-03T05:49:52;99813.63;;;4.05;100.00
7888;BME280;3989;48.810;9.208;2023-02-03T05:52:21;99891.50;;;4.36;100.00
7888;BME280;3989;48.810;9.208;2023-02-03T05:55:11;99912.06;;;4.67;100.00
7888;BME280;3989;48.810;9.208;2023-02-03T05:57:42;99931.22;;;4.82;100.00
7888;BME280;3989;48.810;9.208;2023-02-03T06:00:16;99893.22;;;4.71;100.00
7888;BME280;3989;48.810;9.208;2023-02-03T06:03:08;99870.94;;;4.63;100.00
7888;BME280;3989;48.810;9.208;2023-02-03T06:06:00;100009.50;;;5.43;100.00
7888;BME280;3989;48.810;9.208;2023-02-03T06:08:30;99806.97;;;4.12;100.00
7888;BME280;3989;48.810;9.208;2023-02-03T06:10:58;99643.97;;;3.32;100.00
7888;BME280;3989;48.810;9.208;2023-02-03T06:13:29;99616.66;;;3.20;100.00
7888;BME280;3989;48.810;9.208;2023-02-03T06:15:58;99951.56;;;5.16;100.00
7888;BME280;3989;48.810;9.208;2023-02-03T06:18:24;99771.03;;;4.09;100.00
7888;BME280;3989;48.810;9.208;2023-02-03T06:20:51;99753.03;;;4.03;100.00
7888;BME280;3989;48.810;9.208;2023-02-03T06:23:18;99806.94;;;4.36;100.00
7888;BME280;3989;48.810;9.208;2023-02-03T06:25:47;100016.63;;;5.53;100.00
7888;BME280;3989;48.810;9.208;2023-02-03T06:28:14;100019.03;;;5.56;100.00
7888;BME280;3989;48.810;9.208;2023-02-03T06:30:42;100004.47;;;5.51;100.00
7888;BME280;3989;48.810;9.208;2023-02-03T06:33:11;99939.56;;;5.23;100.00
7888;BME280;3989;48.810;9.208;2023-02-03T06:42:32;99975.66;;;5.35;100.00
7888;BME280;3989;48.810;9.208;2023-02-03T06:45:02;100002.44;;;5.54;100.00
7888;BME280;3989;48.810;9.208;2023-02-03T06:47:38;99980.97;;;5.35;100.00
7888;BME280;3989;48.810;9.208;2023-02-03T06:50:06;99942.78;;;5.15;100.00
7888;BME280;3989;48.810;9.208;2023-02-03T06:52:34;99871.31;;;4.69;100.00
7888;BME280;3989;48.810;9.208;2023-02-03T09:05:06;100095.19;;;6.22;100.00
7888;BME280;3989;48.810;9.208;2023-02-03T09:07:37;100005.53;;;5.94;100.00
7888;BME280;3989;48.810;9.208;2023-02-03T09:10:06;99932.13;;;5.72;100.00
7888;BME280;3989;48.810;9.208;2023-02-03T09:12:34;99712.53;;;4.60;100.00
7888;BME280;3989;48.810;9.208;2023-02-03T09:15:06;100042.69;;;6.70;100.00
7888;BME280;3989;48.810;9.208;2023-02-03T09:17:33;100040.59;;;6.85;100.00
7888;BME280;3989;48.810;9.208;2023-02-03T09:20:00;100022.50;;;6.90;100.00
7888;BME280;3989;48.810;9.208;2023-02-03T09:22:28;99950.38;;;6.53;100.00
7888;BME280;3989;48.810;9.208;2023-02-03T09:24:54;100014.03;;;7.07;100.00
7888;BME280;3989;48.810;9.208;2023-02-03T09:27:21;100032.00;;;7.56;100.00
7888;BME280;3989;48.810;9.208;2023-02-03T09:29:47;100031.25;;;7.96;100.00
7888;BME280;3989;48.810;9.208;2023-02-03T09:32:14;100014.47;;;7.95;100.00
7888;BME280;3989;48.810;9.208;2023-02-03T09:34:40;99989.16;;;7.70;100.00
7888;BME280;3989;48.810;9.208;2023-02-03T09:37:07;100032.75;;;7.88;100.00
7888;BME280;3989;48.810;9.208;2023-02-03T09:39:36;100041.88;;;7.96;100.00
7888;BME280;3989;48.810;9.208;2023-02-03T09:42:18;100048.69;;;8.30;100.00
7888;BME280;3989;48.810;9.208;2023-02-03T09:45:00;100051.81;;;8.44;100.00
7888;BME280;3989;48.810;9.208;2023-02-03T09:47:32;100060.34;;;8.38;100.00
7888;BME280;3989;48.810;9.208;2023-02-03T09:50:02;100027.41;;;8.30;100.00
7888;BME280;3989;48.810;9.208;2023-02-03T09:52:32;100011.88;;;8.14;100.00
7888;BME280;3989;48.810;9.208;2023-02-03T09:55:03;100043.03;;;8.23;100.00
7888;BME280;3989;48.810;9.208;2023-02-03T09:57:36;100039.91;;;8.39;100.00
7888;BME280;3989;48.810;9.208;2023-02-03T10:00:14;100030.84;;;8.61;100.00
7888;BME280;3989;48.810;9.208;2023-02-03T10:02:54;99990.00;;;8.71;100.00
7888;BME280;3989;48.810;9.208;2023-02-03T10:05:24;100028.72;;;9.23;100.00
7888;BME280;3989;48.810;9.208;2023-02-03T10:08:01;100026.91;;;9.33;100.00
7888;BME280;3989;48.810;9.208;2023-02-03T10:10:38;100011.59;;;9.35;100.00
7888;BME280;3989;48.810;9.208;2023-02-03T10:13:14;100017.34;;;9.31;100.00
7888;BME280;3989;48.810;9.208;2023-02-03T10:16:24;100029.00;;;9.20;100.00
7888;BME280;3989;48.810;9.208;2023-02-03T10:18:57;100005.56;;;8.95;100.00
7888;BME280;3989;48.810;9.208;2023-02-03T10:21:32;100035.00;;;8.93;100.00
7888;BME280;3989;48.810;9.208;2023-02-03T10:24:03;100055.59;;;8.91;100.00
7888;BME280;3989;48.810;9.208;2023-02-03T10:26:32;100014.34;;;8.67;100.00
7888;BME280;3989;48.810;9.208;2023-02-03T10:29:03;99980.97;;;8.53;100.00
7888;BME280;3989;48.810;9.208;2023-02-03T10:31:35;99976.69;;;8.71;100.00
7888;BME280;3989;48.810;9.208;2023-02-03T10:34:08;100053.38;;;9.16;100.00
7888;BME280;3989;48.810;9.208;2023-02-03T10:36:47;100029.56;;;9.05;100.00
7888;BME280;3989;48.810;9.208;2023-02-03T10:39:25;100046.81;;;9.20;100.00
7888;BME280;3989;48.810;9.208;2023-02-03T10:41:54;100041.88;;;9.25;100.00
7888;BME280;3989;48.810;9.208;2023-02-03T10:44:26;100031.66;;;9.20;100.00
7888;BME280;3989;48.810;9.208;2023-02-03T10:46:56;100005.72;;;9.22;100.00
7888;BME280;3989;48.810;9.208;2023-02-03T10:49:26;99959.47;;;9.04;100.00
7888;BME280;3989;48.810;9.208;2023-02-03T10:51:57;99971.09;;;9.22;100.00
7888;BME280;3989;48.810;9.208;2023-02-03T10:54:29;99993.91;;;9.54;100.00
7888;BME280;3989;48.810;9.208;2023-02-03T10:57:05;99993.56;;;9.76;100.00
7888;BME280;3989;48.810;9.208;2023-02-03T10:59:34;99926.84;;;9.58;100.00
7888;BME280;3989;48.810;9.208;2023-02-03T11:02:07;99959.06;;;9.74;100.00
7888;BME280;3989;48.810;9.208;2023-02-03T11:04:34;99952.25;;;9.62;100.00
7888;BME280;3989;48.810;9.208;2023-02-03T11:07:03;99945.66;;;9.47;100.00
7888;BME280;3989;48.810;9.208;2023-02-03T11:09:34;99996.25;;;9.76;100.00
7888;BME280;3989;48.810;9.208;2023-02-03T11:12:09;100000.50;;;9.69;100.00
7888;BME280;3989;48.810;9.208;2023-02-03T11:14:36;99999.78;;;9.57;100.00
7888;BME280;3989;48.810;9.208;2023-02-03T11:17:07;99969.09;;;9.34;100.00
7888;BME280;3989;48.810;9.208;2023-02-03T11:19:36;99957.06;;;9.30;100.00
7888;BME280;3989;48.810;9.208;2023-02-03T11:22:04;99954.56;;;9.09;100.00
7888;BME280;3989;48.810;9.208;2023-02-03T11:24:32;99991.72;;;9.11;100.00
7888;BME280;3989;48.810;9.208;2023-02-03T11:27:08;99965.78;;;8.93;100.00
7888;BME280;3989;48.810;9.208;2023-02-03T11:29:37;99948.66;;;9.15;100.00
7888;BME280;3989;48.810;9.208;2023-02-03T11:32:15;99965.63;;;9.24;100.00
7888;BME280;3989;48.810;9.208;2023-02-03T11:34:46;99906.78;;;8.98;100.00
7888;BME280;3989;48.810;9.208;2023-02-03T11:37:25;99967.16;;;9.36;100.00
7888;BME280;3989;48.810;9.208;2023-02-03T11:39:54;99943.19;;;9.26;100.00
7888;BME280;3989;48.810;9.208;2023-02-03T11:42:23;99958.44;;;9.34;100.00
7888;BME280;3989;48.810;9.208;2023-02-03T11:44:50;99951.88;;;9.19;100.00
7888;BME280;3989;48.810;9.208;2023-02-03T11:47:17;99935.06;;;8.89;100.00
7888;BME280;3989;48.810;9.208;2023-02-03T11:50:01;99955.81;;;9.05;100.00
7888;BME280;3989;48.810;9.208;2023-02-03T11:52:44;99940.84;;;9.04;100.00
7888;BME280;3989;48.810;9.208;2023-02-03T11:55:20;99893.63;;;8.68;100.00
7888;BME280;3989;48.810;9.208;2023-02-03T11:58:00;99926.13;;;8.81;100.00
7888;BME280;3989;48.810;9.208;2023-02-03T12:00:34;99933.94;;;9.02;100.00
7888;BME280;3989;48.810;9.208;2023-02-03T12:03:32;99924.41;;;9.18;100.00
7888;BME280;3989;48.810;9.208;2023-02-03T12:06:15;99929.00;;;9.35;100.00
7888;BME280;3989;48.810;9.208;2023-02-03T12:09:02;99925.09;;;9.30;100.00
7888;BME280;3989;48.810;9.208;2023-02-03T12:11:43;99920.88;;;9.37;100.00
7888;BME280;3989;48.810;9.208;2023-02-03T12:14:25;99897.78;;;9.18;100.00
7888;BME280;3989;48.810;9.208;2023-02-03T12:17:14;99912.63;;;9.30;100.00
7888;BME280;3989;48.810;9.208;2023-02-03T12:19:56;99916.94;;;9.31;100.00
7888;BME280;3989;48.810;9.208;2023-02-03T12:22:35;99928.97;;;9.55;100.00
7888;BME280;3989;48.810;9.208;2023-02-03T12:25:18;99899.13;;;9.41;100.00
7888;BME280;3989;48.810;9.208;2023-02-03T12:27:54;99935.31;;;9.34;100.00
7888;BME280;3989;48.810;9.208;2023-02-03T12:30:29;99940.66;;;9.34;100.00
7888;BME280;3989;48.810;9.208;2023-02-03T12:33:01;99932.13;;;9.12;100.00
7888;BME280;3989;48.810;9.208;2023-02-03T12:35:32;99925.69;;;8.95;100.00
7888;BME280;3989;48.810;9.208;2023-02-03T12:38:04;99920.22;;;8.96;100.00
7888;BME280;3989;48.810;9.208;2023-02-03T12:40:35;99916.59;;;8.88;100.00
7888;BME280;3989;48.810;9.208;2023-02-03T12:43:20;99898.78;;;8.79;100.00
7888;BME280;3989;48.810;9.208;2023-02-03T12:45:59;99869.78;;;8.57;100.00
7888;BME280;3989;48.810;9.208;2023-02-03T12:48:47;99788.53;;;8.14;100.00
7888;BME280;3989;48.810;9.208;2023-02-03T12:51:29;99893.75;;;8.76;100.00
7888;BME280;3989;48.810;9.208;2023-02-03T12:54:07;99848.22;;;8.50;100.00
7888;BME280;3989;48.810;9.208;2023-02-03T12:56:40;99861.13;;;8.64;100.00
7888;BME280;3989;48.810;9.208;2023-02-03T12:59:12;99847.69;;;8.66;100.00
7888;BME280;3989;48.810;9.208;2023-02-03T13:01:45;99852.16;;;8.56;100.00
7888;BME280;3989;48.810;9.208;2023-02-03T13:04:19;99868.41;;;8.62;100.00
7888;BME280;3989;48.810;9.208;2023-02-03T13:06:52;99853.97;;;8.65;100.00
7888;BME280;3989;48.810;9.208;2023-02-03T13:09:28;99855.22;;;8.70;100.00
7888;BME280;3989;48.810;9.208;2023-02-03T13:12:01;99798.25;;;8.34;100.00
7888;BME280;3989;48.810;9.208;2023-02-03T13:14:32;99828.06;;;8.57;100.00
7888;BME280;3989;48.810;9.208;2023-02-03T13:17:05;99845.31;;;8.72;100.00
7888;BME280;3989;48.810;9.208;2023-02-03T13:19:40;99818.81;;;8.52;100.00
7888;BME280;3989;48.810;9.208;2023-02-03T13:22:13;99844.47;;;8.72;100.00
7888;BME280;3989;48.810;9.208;2023-02-03T13:24:44;99771.50;;;8.17;100.00
7888;BME280;3989;48.810;9.208;2023-02-03T13:27:29;99816.28;;;8.50;100.00
7888;BME280;3989;48.810;9.208;2023-02-03T13:30:11;99841.50;;;8.65;100.00
7888;BME280;3989;48.810;9.208;2023-02-03T13:33:07;99845.03;;;8.56;100.00
7888;BME280;3989;48.810;9.208;2023-02-03T13:35:50;99825.25;;;8.68;100.00
7888;BME280;3989;48.810;9.208;2023-02-03T13:38:38;99826.41;;;8.66;100.00
7888;BME280;3989;48.810;9.208;2023-02-03T13:41:16;99819.38;;;8.65;100.00
7888;BME280;3989;48.810;9.208;2023-02-03T13:43:48;99813.63;;;8.60;100.00
7888;BME280;3989;48.810;9.208;2023-02-03T13:46:21;99831.84;;;8.64;100.00
7888;BME280;3989;48.810;9.208;2023-02-03T13:48:50;99807.78;;;8.56;100.00
7888;BME280;3989;48.810;9.208;2023-02-03T13:51:20;99816.72;;;8.65;100.00
7888;BME280;3989;48.810;9.208;2023-02-03T13:53:48;99800.34;;;8.50;100.00
7888;BME280;3989;48.810;9.208;2023-02-03T13:56:19;99791.94;;;8.45;100.00
7888;BME280;3989;48.810;9.208;2023-02-03T13:59:00;99816.72;;;8.65;100.00
7888;BME280;3989;48.810;9.208;2023-02-03T14:01:30;99827.09;;;8.68;100.00
7888;BME280;3989;48.810;9.208;2023-02-03T14:04:00;99827.09;;;8.68;100.00
7888;BME280;3989;48.810;9.208;2023-02-03T14:09:35;99785.94;;;8.43;100.00
7888;BME280;3989;48.810;9.208;2023-02-03T14:15:16;99823.56;;;8.67;100.00
7888;BME280;3989;48.810;9.208;2023-02-03T14:18:01;99831.00;;;8.64;100.00
7888;BME280;3989;48.810;9.208;2023-02-03T14:20:50;99831.44;;;8.59;100.00
7888;BME280;3989;48.810;9.208;2023-02-03T14:23:24;99828.34;;;8.64;100.00
7888;BME280;3989;48.810;9.208;2023-02-03T14:25:54;99833.53;;;8.65;100.00
7888;BME280;3989;48.810;9.208;2023-02-03T14:28:25;99817.69;;;8.54;100.00
7888;BME280;3989;48.810;9.208;2023-02-03T14:31:02;99818.66;;;8.63;100.00
7888;BME280;3989;48.810;9.208;2023-02-03T14:34:02;99822.88;;;8.65;100.00
7888;BME280;3989;48.810;9.208;2023-02-03T14:36:38;99822.88;;;8.65;100.00
7888;BME280;3989;48.810;9.208;2023-02-03T14:39:45;99822.16;;;8.63;100.00
7888;BME280;3989;48.810;9.208;2023-02-03T14:42:33;99804.28;;;8.46;100.00
7888;BME280;3989;48.810;9.208;2023-02-03T14:45:10;99830.59;;;8.59;100.00
7888;BME280;3989;48.810;9.208;2023-02-03T14:47:48;99823.03;;;8.54;100.00
7888;BME280;3989;48.810;9.208;2023-02-03T14:50:30;99838.41;;;8.51;100.00
7888;BME280;3989;48.810;9.208;2023-02-03T14:53:28;99835.06;;;8.49;100.00
7888;BME280;3989;48.810;9.208;2023-02-03T14:56:10;99798.69;;;8.30;100.00
7888;BME280;3989;48.810;9.208;2023-02-03T14:58:42;99791.91;;;8.26;100.00
7888;BME280;3989;48.810;9.208;2023-02-03T15:01:23;99820.25;;;8.36;100.00
7888;BME280;3989;48.810;9.208;2023-02-03T15:04:18;99834.63;;;8.43;100.00
7888;BME280;3989;48.810;9.208;2023-02-03T15:06:47;99832.13;;;8.42;100.00
7888;BME280;3989;48.810;9.208;2023-02-03T15:09:22;99825.84;;;8.43;100.00
7888;BME280;3989;48.810;9.208;2023-02-03T15:11:50;99816.44;;;8.39;100.00
7888;BME280;3989;48.810;9.208;2023-02-03T15:14:21;99800.88;;;8.25;100.00
7888;BME280;3989;48.810;9.208;2023-02-03T15:16:53;99808.59;;;8.37;100.00
7888;BME280;3989;48.810;9.208;2023-02-03T15:19:23;99823.59;;;8.38;100.00
7888;BME280;3989;48.810;9.208;2023-02-03T15:21:51;99723.31;;;7.72;100.00
7888;BME280;3989;48.810;9.208;2023-02-03T15:24:20;99820.47;;;8.24;100.00
7888;BME280;3989;48.810;9.208;2023-02-03T15:26:50;99830.31;;;8.33;100.00
7888;BME280;3989;48.810;9.208;2023-02-03T15:29:23;99827.09;;;8.29;100.00
7888;BME280;3989;48.810;9.208;2023-02-03T15:32:04;99810.25;;;8.19;100.00
7888;BME280;3989;48.810;9.208;2023-02-03T15:34:35;99502.66;;;6.28;100.00
7888;BME280;3989;48.810;9.208;2023-02-03T15:37:07;99858.00;;;8.30;100.00
7888;BME280;3989;48.810;9.208;2023-02-03T15:39:52;99852.41;;;8.24;100.00
7888;BME280;3989;48.810;9.208;2023-02-03T15:42:24;99773.66;;;7.73;100.00
7888;BME280;3989;48.810;9.208;2023-02-03T15:44:56;99858.84;;;8.31;100.00
7888;BME280;3989;48.810;9.208;2023-02-03T15:47:29;99658.38;;;6.86;100.00
7888;BME280;3989;48.810;9.208;2023-02-03T15:50:09;99867.78;;;8.20;100.00
7888;BME280;3989;48.810;9.208;2023-02-03T15:52:43;99876.72;;;8.19;100.00
7888;BME280;3989;48.810;9.208;2023-02-03T15:55:18;99847.00;;;8.05;100.00
7888;BME280;3989;48.810;9.208;2023-02-03T15:57:49;99892.00;;;8.17;100.00
7888;BME280;3989;48.810;9.208;2023-02-03T16:00:28;99820.38;;;7.76;100.00
7888;BME280;3989;48.810;9.208;2023-02-03T16:02:57;99912.25;;;8.18;100.00
7888;BME280;3989;48.810;9.208;2023-02-03T16:05:26;99866.72;;;7.92;100.00
7888;BME280;3989;48.810;9.208;2023-02-03T16:07:53;99789.66;;;7.43;100.00
7888;BME280;3989;48.810;9.208;2023-02-03T16:10:27;99891.97;;;8.08;100.00
7888;BME280;3989;48.810;9.208;2023-02-03T16:13:16;99882.38;;;7.96;100.00
7888;BME280;3989;48.810;9.208;2023-02-03T16:15:59;99860.53;;;7.43;100.00
7888;BME280;3989;48.810;9.208;2023-02-03T16:18:26;99885.41;;;7.42;100.00
7888;BME280;3989;48.810;9.208;2023-02-03T16:20:52;99854.03;;;7.05;100.00
7888;BME280;3989;48.810;9.208;2023-02-03T16:23:21;99842.38;;;6.97;100.00
7888;BME280;3989;48.810;9.208;2023-02-03T16:26:14;99825.28;;;6.90;100.00
7888;BME280;3989;48.810;9.208;2023-02-03T16:28:42;99885.59;;;7.08;100.00
7888;BME280;3989;48.810;9.208;2023-02-03T16:31:26;99844.44;;;6.93;100.00
7888;BME280;3989;48.810;9.208;2023-02-03T16:34:15;99893.56;;;7.29;100.00
7888;BME280;3989;48.810;9.208;2023-02-03T16:37:00;99853.81;;;7.18;100.00
7888;BME280;3989;48.810;9.208;2023-02-03T16:39:44;99750.81;;;6.61;100.00
7888;BME280;3989;48.810;9.208;2023-02-03T16:42:38;99893.94;;;7.45;100.00
7888;BME280;3989;48.810;9.208;2023-02-03T16:45:23;99832.13;;;7.13;100.00
7888;BME280;3989;48.810;9.208;2023-02-03T16:48:09;99809.31;;;7.01;100.00
7888;BME280;3989;48.810;9.208;2023-02-03T16:50:53;99871.41;;;7.39;100.00
7888;BME280;3989;48.810;9.208;2023-02-03T16:53:22;99899.03;;;7.58;100.00
7888;BME280;3989;48.810;9.208;2023-02-03T16:55:50;99898.19;;;7.57;100.00
7888;BME280;3989;48.810;9.208;2023-02-03T16:58:18;99893.53;;;7.50;100.00
7888;BME280;3989;48.810;9.208;2023-02-03T17:00:46;99912.31;;;7.58;100.00
7888;BME280;3989;48.810;9.208;2023-02-03T17:03:16;99896.13;;;7.61;100.00
7888;BME280;3989;48.810;9.208;2023-02-03T17:05:44;99902.38;;;7.60;100.00
7888;BME280;3989;48.810;9.208;2023-02-03T17:08:12;99898.03;;;7.49;100.00
7888;BME280;3989;48.810;9.208;2023-02-03T17:10:40;99909.53;;;7.59;100.00
7888;BME280;3989;48.810;9.208;2023-02-03T17:13:07;99924.09;;;7.65;100.00
7888;BME280;3989;48.810;9.208;2023-02-03T17:15:39;99922.88;;;7.69;100.00
7888;BME280;3989;48.810;9.208;2023-02-03T17:18:06;99895.81;;;7.54;100.00
7888;BME280;3989;48.810;9.208;2023-02-03T17:20:33;99885.56;;;7.50;100.00
7888;BME280;3989;48.810;9.208;2023-02-03T17:22:59;99927.47;;;7.67;100.00
7888;BME280;3989;48.810;9.208;2023-02-03T17:25:26;99915.03;;;7.67;100.00
7888;BME280;3989;48.810;9.208;2023-02-03T17:27:53;99880.13;;;7.51;100.00
7888;BME280;3989;48.810;9.208;2023-02-03T17:30:20;99919.53;;;7.76;100.00
7888;BME280;3989;48.810;9.208;2023-02-03T17:32:48;99700.31;;;6.42;100.00
7888;BME280;3989;48.810;9.208;2023-02-03T17:35:15;99810.84;;;7.03;100.00
7888;BME280;3989;48.810;9.208;2023-02-03T17:37:41;99827.25;;;7.18;100.00
7888;BME280;3989;48.810;9.208;2023-02-03T17:40:09;99864.69;;;7.35;100.00
7888;BME280;3989;48.810;9.208;2023-02-03T17:42:35;99880.00;;;7.53;100.00
7888;BME280;3989;48.810;9.208;2023-02-03T17:45:02;99815.50;;;7.11;100.00
7888;BME280;3989;48.810;9.208;2023-02-03T17:47:29;99850.69;;;7.33;100.00
7888;BME280;3989;48.810;9.208;2023-02-03T17:49:57;99608.97;;;5.83;100.00
7888;BME280;3989;48.810;9.208;2023-02-03T17:52:24;99950.78;;;7.84;100.00
7888;BME280;3989;48.810;9.208;2023-02-03T17:54:50;99825.66;;;7.26;100.00
7888;BME280;3989;48.810;9.208;2023-02-03T17:57:17;99922.13;;;7.87;100.00
7888;BME280;3989;48.810;9.208;2023-02-03T17:59:45;99882.13;;;7.59;100.00
7888;BME280;3989;48.810;9.208;2023-02-03T18:02:12;99937.91;;;7.89;100.00
7888;BME280;3989;48.810;9.208;2023-02-03T18:04:39;99825.19;;;7.21;100.00
7888;BME280;3989;48.810;9.208;2023-02-03T18:07:08;99932.63;;;7.99;100.00
7888;BME280;3989;48.810;9.208;2023-02-03T18:09:34;99923.41;;;8.03;100.00
7888;BME280;3989;48.810;9.208;2023-02-03T18:12:01;99932.25;;;8.03;100.00
7888;BME280;3989;48.810;9.208;2023-02-03T18:14:28;99829.34;;;7.45;100.00
7888;BME280;3989;48.810;9.208;2023-02-03T18:16:55;99922.16;;;7.97;100.00